createdAt,value
2022-08-09T00:06:18.065Z,81.47
2022-08-09T00:10:32.101Z,83.73
2022-08-09T00:15:59.526Z,84.27
2022-08-09T00:21:09.053Z,81.69
2022-08-09T00:26:14.093Z,80.93
2022-08-09T00:31:57.505Z,83.59
2022-08-09T00:36:47.355Z,82.93
2022-08-09T00:44:19.391Z,85.09
2022-08-09T00:47:20.506Z,84.47
2022-08-09T00:52:30.060Z,86.66
2022-08-09T00:57:35.809Z,86.77
2022-08-09T01:02:49.759Z,86.49
2022-08-09T01:08:01.933Z,86.72
2022-08-09T01:13:16.895Z,85.59
2022-08-09T01:18:30.139Z,87.63
2022-08-09T01:24:03.190Z,87.67
2022-08-09T01:29:15.460Z,87.60
2022-08-09T01:34:24.634Z,88.32
2022-08-09T01:39:35.737Z,87.49
2022-08-09T01:44:44.772Z,90.13
2022-08-09T01:49:54.613Z,90.23
2022-08-09T01:55:02.337Z,90.23
2022-08-09T02:00:34.554Z,90.00
2022-08-09T02:06:03.271Z,88.19
2022-08-09T02:11:13.422Z,87.66
2022-08-09T02:16:33.813Z,89.01
2022-08-09T02:21:57.031Z,89.80
2022-08-09T02:27:07.295Z,90.11
2022-08-09T02:32:18.735Z,89.55
2022-08-09T02:37:31.482Z,89.99
2022-08-09T02:42:41.574Z,90.18
2022-08-09T02:47:59.151Z,89.79
2022-08-09T02:53:08.148Z,90.81
2022-08-09T02:58:32.589Z,92.51
2022-08-09T03:04:18.396Z,92.80
2022-08-09T03:09:11.929Z,92.03
2022-08-09T03:14:19.670Z,91.26
2022-08-09T03:19:57.775Z,92.83
2022-08-09T03:25:20.898Z,93.52
2022-08-09T03:30:33.378Z,93.66
2022-08-09T03:36:11.749Z,94.05
2022-08-09T03:41:07.194Z,92.37
2022-08-09T03:46:19.616Z,93.20
2022-08-09T03:51:55.979Z,93.49
2022-08-09T03:56:55.063Z,93.05
2022-08-09T04:02:03.963Z,91.82
2022-08-09T04:07:17.599Z,92.34
2022-08-09T04:12:41.388Z,91.97
2022-08-09T04:17:50.043Z,92.36
2022-08-09T04:22:59.720Z,91.07
2022-08-09T04:28:05.070Z,90.48
2022-08-09T04:33:10.578Z,89.10
2022-08-09T04:38:18.211Z,88.08
2022-08-09T04:43:25.297Z,83.44
2022-08-09T04:48:33.492Z,79.54
2022-08-09T04:53:41.303Z,75.98
2022-08-09T04:58:47.633Z,70.34
2022-08-09T05:03:58.710Z,71.24
2022-08-09T05:09:10.761Z,73.37
2022-08-09T05:14:17.429Z,67.12
2022-08-09T05:19:25.506Z,66.35
2022-08-09T05:24:33.822Z,63.30
2022-08-09T05:29:41.523Z,62.00
2022-08-09T05:34:46.540Z,61.25
2022-08-09T05:39:54.997Z,59.67
2022-08-09T05:45:01.183Z,57.62
2022-08-09T05:50:30.921Z,56.18
2022-08-09T05:55:35.211Z,53.48
2022-08-09T06:00:43.922Z,55.31
2022-08-09T06:05:54.672Z,59.12
2022-08-09T06:11:17.417Z,60.64
2022-08-09T06:16:23.558Z,62.91
2022-08-09T06:21:58.899Z,61.80
2022-08-09T06:27:03.620Z,62.71
2022-08-09T06:32:53.429Z,63.01
2022-08-09T06:37:53.364Z,62.68
2022-08-09T06:43:15.209Z,61.57
2022-08-09T06:48:30.093Z,63.05
2022-08-09T06:53:38.682Z,61.22
2022-08-09T07:00:49.735Z,61.16
2022-08-09T07:04:12.224Z,59.03
2022-08-09T07:09:54.873Z,53.69
2022-08-09T07:14:53.655Z,54.84
2022-08-09T07:19:58.740Z,52.80
2022-08-09T07:25:09.667Z,54.05
2022-08-09T07:30:18.295Z,54.46
2022-08-09T07:35:23.739Z,53.67
2022-08-09T07:40:46.206Z,52.35
2022-08-09T07:46:01.850Z,53.68
2022-08-09T07:52:03.706Z,52.43
2022-08-09T07:56:35.992Z,52.11
2022-08-09T08:01:52.931Z,49.39
2022-08-09T08:07:09.188Z,50.07
2022-08-09T08:12:27.751Z,49.19
2022-08-09T08:17:55.268Z,49.43
2022-08-09T08:23:16.737Z,48.33
2022-08-09T08:28:26.184Z,50.15
2022-08-09T08:33:52.268Z,49.39
2022-08-09T08:39:02.549Z,48.90
2022-08-09T08:44:07.688Z,46.98
2022-08-09T08:49:19.098Z,48.45
2022-08-09T08:54:28.145Z,48.76
2022-08-09T08:59:47.099Z,48.37
2022-08-09T09:04:57.825Z,48.09
2022-08-09T09:10:12.106Z,47.95
2022-08-09T09:15:28.307Z,47.70
2022-08-09T09:20:39.032Z,48.11
2022-08-09T09:26:03.274Z,48.32
2022-08-09T09:32:04.599Z,47.67
2022-08-09T09:36:54.053Z,49.02
2022-08-09T09:42:00.554Z,47.84
2022-08-09T09:47:10.945Z,48.50
2022-08-09T09:52:37.007Z,48.27
2022-08-09T09:58:02.984Z,49.08
2022-08-09T10:03:11.650Z,48.26
2022-08-09T10:08:27.904Z,45.29
2022-08-09T10:13:45.463Z,46.36
2022-08-09T10:19:02.912Z,46.14
2022-08-09T10:24:25.440Z,45.14
2022-08-09T10:30:30.076Z,46.08
2022-08-09T10:35:13.224Z,46.87
2022-08-09T10:40:32.518Z,45.76
2022-08-09T10:45:49.402Z,46.95
2022-08-09T10:51:18.331Z,47.95
2022-08-09T10:56:28.770Z,48.11
2022-08-09T11:03:17.972Z,47.99
2022-08-09T11:07:56.933Z,48.35
2022-08-09T11:13:50.296Z,48.17
2022-08-09T11:18:49.330Z,47.27
2022-08-09T11:24:13.598Z,46.62
2022-08-09T11:30:04.388Z,46.65
2022-08-09T11:35:19.824Z,45.92
2022-08-09T11:40:34.199Z,46.98
2022-08-09T11:45:43.680Z,46.33
2022-08-09T11:53:01.069Z,47.54
2022-08-09T11:56:42.484Z,46.67
2022-08-09T12:02:18.215Z,47.39
2022-08-09T12:07:21.010Z,45.51
2022-08-09T12:12:28.739Z,46.16
2022-08-09T12:17:44.556Z,44.81
2022-08-09T12:23:01.832Z,45.51
2022-08-09T12:29:00.253Z,44.77
2022-08-09T12:33:59.005Z,45.71
2022-08-09T12:39:20.513Z,47.34
2022-08-09T12:44:26.322Z,47.08
2022-08-09T12:49:52.915Z,46.44
2022-08-09T12:56:11.478Z,46.50
2022-08-09T13:00:29.604Z,46.65
2022-08-09T13:05:51.531Z,46.37
2022-08-09T13:11:23.144Z,46.09
2022-08-09T13:16:49.518Z,45.59
2022-08-09T13:22:37.083Z,44.15
2022-08-09T13:27:55.251Z,43.21
2022-08-09T13:33:02.786Z,44.19
2022-08-09T13:38:32.999Z,46.24
2022-08-09T13:43:40.586Z,47.35
2022-08-09T13:48:46.586Z,47.64
2022-08-09T13:53:53.605Z,47.29
2022-08-09T13:59:02.812Z,47.16
2022-08-09T14:04:11.623Z,47.22
2022-08-09T14:09:24.962Z,47.53
2022-08-09T14:14:37.058Z,46.13
2022-08-09T14:19:42.480Z,46.21
2022-08-09T14:24:54.096Z,45.31
2022-08-09T14:30:35.888Z,45.11
2022-08-09T14:35:27.948Z,44.25
2022-08-09T14:41:02.372Z,43.48
2022-08-09T14:46:46.158Z,44.24
2022-08-09T14:51:51.613Z,45.20
2022-08-09T14:57:03.638Z,45.69
2022-08-09T15:02:11.204Z,45.85
2022-08-09T15:07:17.518Z,46.50
2022-08-09T15:12:24.569Z,46.35
2022-08-09T15:17:41.482Z,46.31
2022-08-09T15:22:47.753Z,46.17
2022-08-09T15:27:56.519Z,46.46
2022-08-09T15:33:08.690Z,46.86
2022-08-09T15:38:21.521Z,46.61
2022-08-09T15:43:36.696Z,47.30
2022-08-09T15:48:52.874Z,47.36
2022-08-09T15:54:20.996Z,47.27
2022-08-09T15:59:37.065Z,47.29
2022-08-09T16:04:45.111Z,47.59
2022-08-09T16:10:04.195Z,47.65
2022-08-09T16:16:11.678Z,47.23
2022-08-09T16:20:41.692Z,47.31
2022-08-09T16:25:49.798Z,47.12
2022-08-09T16:30:58.693Z,46.25
2022-08-09T16:36:13.180Z,46.78
2022-08-09T16:42:02.171Z,45.98
2022-08-09T16:46:54.906Z,45.75
2022-08-09T16:52:10.058Z,45.65
2022-08-09T16:57:14.979Z,45.86
2022-08-09T17:02:23.304Z,45.96
2022-08-09T17:08:43.017Z,45.85
2022-08-09T17:12:58.251Z,46.30
2022-08-09T17:18:03.188Z,46.61
2022-08-09T17:23:14.772Z,46.22
2022-08-09T17:28:22.224Z,46.50
2022-08-09T17:33:29.308Z,46.63
2022-08-09T17:38:57.616Z,47.08
2022-08-09T17:44:47.154Z,47.34
2022-08-09T17:49:30.346Z,47.34
2022-08-09T17:54:38.438Z,48.15
2022-08-09T17:59:46.110Z,47.62
2022-08-09T18:05:16.778Z,48.62
2022-08-09T18:10:24.352Z,49.32
2022-08-09T18:16:05.477Z,49.64
2022-08-09T18:21:17.705Z,50.38
2022-08-09T18:26:26.648Z,50.63
2022-08-09T18:31:55.111Z,50.71
2022-08-09T18:36:57.223Z,51.13
2022-08-09T18:42:08.155Z,51.51
2022-08-09T18:47:23.389Z,52.03
2022-08-09T18:52:35.123Z,51.97
2022-08-09T18:57:44.859Z,52.90
2022-08-09T19:02:51.212Z,53.52
2022-08-09T19:08:09.747Z,54.04
2022-08-09T19:13:22.425Z,54.27
2022-08-09T19:18:45.602Z,56.50
2022-08-09T19:24:39.489Z,55.82
2022-08-09T19:29:20.797Z,56.47
2022-08-09T19:34:26.195Z,56.71
2022-08-09T19:40:02.801Z,57.10
2022-08-09T19:44:59.132Z,57.69
2022-08-09T19:50:07.640Z,58.92
2022-08-09T19:55:39.120Z,56.78
2022-08-09T20:00:57.091Z,56.75
2022-08-09T20:06:04.139Z,57.59
2022-08-09T20:11:09.138Z,59.65
2022-08-09T20:16:35.234Z,59.93
2022-08-09T20:21:57.021Z,60.92
2022-08-09T20:27:08.210Z,61.48
2022-08-09T20:32:42.075Z,62.03
2022-08-09T20:38:23.489Z,60.89
2022-08-09T20:43:17.997Z,60.97
2022-08-09T20:48:32.730Z,63.43
2022-08-09T20:53:39.075Z,64.99
2022-08-09T20:58:44.448Z,65.45
2022-08-09T21:05:49.266Z,66.79
2022-08-09T21:09:32.603Z,66.21
2022-08-09T21:14:46.136Z,66.70
2022-08-09T21:20:18.107Z,67.35
2022-08-09T21:25:38.163Z,68.07
2022-08-09T21:30:44.634Z,68.04
2022-08-09T21:35:52.893Z,68.18
2022-08-09T21:40:57.986Z,69.09
2022-08-09T21:46:03.978Z,69.39
2022-08-09T21:51:13.241Z,69.43
2022-08-09T21:56:43.552Z,69.20
2022-08-09T22:02:00.248Z,70.33
2022-08-09T22:07:09.771Z,69.57
2022-08-09T22:12:18.573Z,69.74
2022-08-09T22:17:23.993Z,69.58
2022-08-09T22:22:33.658Z,67.93
2022-08-09T22:27:38.881Z,69.98
2022-08-09T22:32:45.411Z,70.58
2022-08-09T22:38:07.163Z,72.40
2022-08-09T22:43:17.033Z,72.88
2022-08-09T22:48:38.386Z,73.58
2022-08-09T22:54:01.040Z,73.96
2022-08-09T22:59:56.800Z,73.93
2022-08-09T23:04:33.855Z,73.02
2022-08-09T23:09:46.886Z,74.44
2022-08-09T23:14:53.963Z,75.22
2022-08-09T23:20:06.388Z,75.19
2022-08-09T23:25:15.844Z,75.48
2022-08-09T23:30:21.553Z,75.81
2022-08-09T23:35:26.662Z,76.06
2022-08-09T23:40:34.285Z,76.97
2022-08-09T23:45:39.396Z,75.93
2022-08-09T23:50:44.527Z,77.00
2022-08-09T23:55:55.490Z,77.34
